Time;durP1;ratioP1;P1;durP2;ratioP2;P2;SDS_P1;SDS_P2;PMS_P1;PMS_P2;Temp;Humidity;BMP_temperature;BMP_pressure;BME280_temperature;BME280_humidity;BME280_pressure;Samples;Min_cycle;Max_cycle;Signal;HPM_P1;HPM_P2
2024/01/22 00:00:50;;;;;;;14.10;6.60;;;2.90;99.90;;;;;;5260077;28;20208;-48
2024/01/22 00:03:20;;;;;;;6.60;4.90;;;2.90;99.90;;;;;;5264707;28;20177;-46
2024/01/22 00:05:51;;;;;;;9.20;5.30;;;3.00;99.90;;;;;;5263510;28;20473;-50
2024/01/22 00:08:22;;;;;;;9.40;5.10;;;3.00;99.90;;;;;;5260568;28;20193;-47
2024/01/22 00:10:52;;;;;;;6.90;5.13;;;2.90;99.90;;;;;;5264918;28;20204;-48
2024/01/22 00:13:23;;;;;;;4.93;4.43;;;2.90;99.90;;;;;;5263390;28;20247;-48
2024/01/22 00:15:53;;;;;;;7.37;4.80;;;2.80;99.90;;;;;;5263894;28;20182;-49
2024/01/22 00:18:24;;;;;;;7.00;4.03;;;2.70;99.90;;;;;;5264531;28;20189;-47
2024/01/22 00:20:55;;;;;;;9.37;4.90;;;2.70;99.90;;;;;;5265034;28;20206;-47
2024/01/22 00:23:26;;;;;;;5.00;4.50;;;2.80;99.90;;;;;;5264140;28;20551;-49
2024/01/22 00:25:56;;;;;;;7.23;4.33;;;2.70;99.90;;;;;;5261586;28;20459;-48
2024/01/22 00:28:27;;;;;;;5.60;4.70;;;2.80;99.90;;;;;;5265453;28;20182;-48
2024/01/22 00:30:58;;;;;;;8.10;5.40;;;2.70;99.90;;;;;;5257076;28;20200;-48
2024/01/22 00:33:28;;;;;;;5.43;4.10;;;2.70;99.90;;;;;;5257386;28;20178;-49
2024/01/22 00:35:59;;;;;;;6.60;5.60;;;2.70;99.90;;;;;;5262044;28;20205;-48
2024/01/22 00:38:29;;;;;;;8.50;5.50;;;2.80;99.90;;;;;;5269674;28;20190;-48
2024/01/22 00:41:00;;;;;;;9.17;4.90;;;2.70;99.90;;;;;;5261689;28;20217;-48
2024/01/22 00:43:31;;;;;;;6.77;4.87;;;2.70;99.90;;;;;;5263039;28;20704;-50
2024/01/22 00:46:01;;;;;;;5.57;4.57;;;2.60;99.90;;;;;;5262069;28;20204;-49
2024/01/22 00:48:32;;;;;;;8.07;5.47;;;2.70;99.90;;;;;;5261740;28;20257;-48
2024/01/22 00:51:03;;;;;;;7.60;4.60;;;2.70;99.90;;;;;;5262601;28;20424;-49
2024/01/22 00:53:33;;;;;;;5.93;5.20;;;2.90;99.90;;;;;;5265566;28;20188;-48
2024/01/22 00:56:04;;;;;;;11.63;5.73;;;2.90;99.90;;;;;;5264369;28;20174;-47
2024/01/22 00:58:35;;;;;;;5.43;4.87;;;2.80;99.90;;;;;;5259672;28;20234;-49
2024/01/22 01:01:08;;;;;;;4.33;3.93;;;2.70;99.90;;;;;;5267011;28;20451;-48
2024/01/22 01:03:38;;;;;;;4.80;4.20;;;2.80;99.90;;;;;;5266447;28;20186;-50
2024/01/22 01:06:09;;;;;;;16.33;5.17;;;3.00;99.90;;;;;;5268333;28;20541;-49
2024/01/22 01:08:40;;;;;;;8.20;5.17;;;3.00;99.90;;;;;;5264086;28;20170;-49
2024/01/22 01:11:10;;;;;;;12.43;6.10;;;3.10;99.90;;;;;;5267069;28;20280;-49
2024/01/22 01:13:41;;;;;;;4.97;3.70;;;3.00;99.90;;;;;;5263315;28;20176;-47
2024/01/22 01:16:11;;;;;;;8.67;4.93;;;3.10;99.90;;;;;;5266796;28;20189;-47
2024/01/22 01:18:42;;;;;;;8.77;5.23;;;3.10;99.90;;;;;;5263773;28;20190;-49
2024/01/22 01:21:13;;;;;;;4.73;4.10;;;3.20;99.90;;;;;;5268338;28;20276;-48
2024/01/22 01:23:43;;;;;;;4.43;3.90;;;3.10;99.90;;;;;;5263999;28;20186;-48
2024/01/22 01:26:14;;;;;;;15.27;4.80;;;3.20;99.90;;;;;;5265152;28;20665;-47
2024/01/22 01:28:45;;;;;;;4.20;3.80;;;3.10;99.90;;;;;;5264721;28;20199;-47
2024/01/22 01:31:15;;;;;;;7.60;4.50;;;3.00;99.90;;;;;;5266688;28;20664;-48
2024/01/22 01:33:46;;;;;;;4.60;3.50;;;3.10;99.90;;;;;;5268160;28;20557;-48
2024/01/22 01:36:17;;;;;;;4.50;3.90;;;3.20;99.90;;;;;;5266224;28;20717;-48
2024/01/22 01:38:47;;;;;;;6.50;3.77;;;3.10;99.90;;;;;;5264713;28;20186;-48
2024/01/22 01:41:18;;;;;;;10.10;4.20;;;3.10;99.90;;;;;;5266286;28;20234;-48
2024/01/22 01:43:48;;;;;;;4.80;3.83;;;3.10;99.90;;;;;;5267927;28;20227;-48
2024/01/22 01:46:19;;;;;;;5.50;3.60;;;3.20;99.90;;;;;;5261180;28;20588;-48
2024/01/22 01:48:50;;;;;;;6.00;4.70;;;3.20;99.90;;;;;;5267428;28;20182;-48
2024/01/22 01:51:22;;;;;;;4.47;3.10;;;3.30;99.90;;;;;;5266787;28;20215;-47
2024/01/22 01:53:55;;;;;;;5.13;3.40;;;3.30;99.90;;;;;;5265619;28;20890;-48
2024/01/22 01:56:26;;;;;;;9.50;5.50;;;3.30;99.90;;;;;;5269212;28;20510;-49
2024/01/22 01:58:57;;;;;;;10.30;4.40;;;3.30;99.90;;;;;;5265688;28;20436;-48
2024/01/22 02:01:27;;;;;;;4.23;3.67;;;3.30;99.90;;;;;;5258329;28;20455;-48
2024/01/22 02:03:58;;;;;;;4.70;4.20;;;3.30;99.90;;;;;;5260749;28;20424;-48
2024/01/22 02:06:28;;;;;;;4.80;4.40;;;3.20;99.90;;;;;;5263566;28;20274;-48
2024/01/22 02:08:59;;;;;;;5.90;3.83;;;3.30;99.90;;;;;;5266009;28;20181;-47
2024/01/22 02:11:30;;;;;;;4.03;3.70;;;3.30;99.90;;;;;;5268737;28;20185;-49
2024/01/22 02:14:00;;;;;;;7.80;4.23;;;3.30;99.90;;;;;;5264664;28;20263;-48
2024/01/22 02:16:31;;;;;;;8.10;4.73;;;3.20;99.90;;;;;;5268326;28;20188;-48
2024/01/22 02:19:01;;;;;;;6.70;3.90;;;3.30;99.90;;;;;;5267662;28;20190;-47
2024/01/22 02:21:32;;;;;;;5.17;3.97;;;3.30;99.90;;;;;;5265908;28;20709;-46
2024/01/22 02:24:03;;;;;;;4.30;3.27;;;3.30;99.90;;;;;;5269042;28;20256;-48
2024/01/22 02:26:33;;;;;;;9.50;3.87;;;3.30;99.90;;;;;;5269428;28;20202;-48
2024/01/22 02:29:04;;;;;;;7.23;4.90;;;3.40;99.90;;;;;;5268970;28;20237;-47
2024/01/22 02:31:35;;;;;;;4.90;4.40;;;3.50;99.90;;;;;;5265537;28;20547;-47
2024/01/22 02:34:05;;;;;;;6.60;4.50;;;3.60;99.90;;;;;;5269022;28;20186;-50
2024/01/22 02:36:36;;;;;;;6.43;4.03;;;3.60;99.90;;;;;;5270581;28;20670;-48
2024/01/22 02:39:06;;;;;;;3.73;3.30;;;3.50;99.90;;;;;;5265288;28;20296;-48
2024/01/22 02:41:37;;;;;;;5.80;4.17;;;3.50;99.90;;;;;;5267437;28;20243;-48
2024/01/22 02:44:08;;;;;;;4.20;3.80;;;3.50;99.90;;;;;;5265946;28;20183;-48
2024/01/22 02:46:38;;;;;;;8.47;3.80;;;3.60;99.90;;;;;;5264495;28;20460;-47
2024/01/22 02:49:09;;;;;;;8.33;4.37;;;3.70;99.90;;;;;;5261818;28;20543;-47
2024/01/22 02:51:43;;;;;;;5.13;4.60;;;3.60;99.90;;;;;;5265606;28;20195;-49
2024/01/22 02:54:14;;;;;;;3.73;3.43;;;3.60;99.90;;;;;;5260032;28;20269;-48
2024/01/22 02:56:45;;;;;;;4.90;4.50;;;3.60;99.90;;;;;;5264120;28;20523;-48
2024/01/22 02:59:15;;;;;;;7.80;4.20;;;3.60;99.90;;;;;;5261712;28;20258;-48
2024/01/22 03:01:46;;;;;;;6.83;4.47;;;3.70;99.90;;;;;;5263200;28;20201;-47
2024/01/22 03:04:16;;;;;;;7.30;4.27;;;3.90;99.90;;;;;;5265736;28;20668;-49
2024/01/22 03:06:47;;;;;;;4.10;3.70;;;3.80;99.90;;;;;;5262503;28;20583;-47
2024/01/22 03:09:18;;;;;;;6.97;3.80;;;3.60;99.90;;;;;;5264787;28;20182;-48
2024/01/22 03:11:49;;;;;;;7.23;4.10;;;3.70;99.90;;;;;;5266849;28;20201;-49
2024/01/22 03:14:19;;;;;;;10.70;4.07;;;3.80;99.90;;;;;;5267663;28;20181;-47
2024/01/22 03:16:50;;;;;;;6.10;3.90;;;3.80;99.90;;;;;;5266322;28;20454;-48
2024/01/22 03:19:20;;;;;;;6.13;3.90;;;3.80;99.90;;;;;;5268581;28;20236;-48
2024/01/22 03:21:51;;;;;;;6.27;4.10;;;3.80;99.90;;;;;;5260341;28;20211;-47
2024/01/22 03:24:22;;;;;;;3.80;3.50;;;3.90;99.90;;;;;;5265517;28;20185;-48
2024/01/22 03:26:53;;;;;;;4.27;3.90;;;4.10;99.90;;;;;;5269284;28;20177;-48
2024/01/22 03:29:23;;;;;;;7.87;3.87;;;4.00;99.90;;;;;;5268665;28;20465;-49
2024/01/22 03:31:54;;;;;;;5.57;4.00;;;4.00;99.90;;;;;;5265529;28;20202;-49
2024/01/22 03:34:24;;;;;;;3.77;3.40;;;3.90;99.90;;;;;;5264086;28;20228;-48
2024/01/22 03:36:55;;;;;;;4.30;3.97;;;4.00;99.90;;;;;;5261571;28;20196;-48
2024/01/22 03:39:26;;;;;;;5.73;4.13;;;4.10;99.90;;;;;;5264892;28;20190;-47
2024/01/22 03:41:56;;;;;;;4.83;3.77;;;4.20;99.90;;;;;;5266124;28;20615;-48
2024/01/22 03:44:27;;;;;;;5.93;3.63;;;4.10;99.90;;;;;;5264832;28;20187;-47
2024/01/22 03:46:57;;;;;;;4.23;3.40;;;4.10;99.90;;;;;;5267672;28;20183;-48
2024/01/22 03:49:28;;;;;;;4.90;2.70;;;4.10;99.90;;;;;;5265993;28;20558;-48
2024/01/22 03:51:59;;;;;;;3.13;2.73;;;4.10;99.90;;;;;;5264653;28;20238;-49
2024/01/22 03:54:29;;;;;;;6.20;3.77;;;4.20;99.90;;;;;;5263575;28;20185;-48
2024/01/22 03:57:06;;;;;;;6.27;4.37;;;4.20;99.90;;;;;;5266826;28;20178;-47
2024/01/22 03:59:37;;;;;;;4.43;3.77;;;4.30;99.90;;;;;;5265425;28;20171;-47
2024/01/22 04:02:08;;;;;;;3.10;3.00;;;4.20;99.90;;;;;;5244250;28;21001;-47
2024/01/22 04:04:39;;;;;;;5.10;3.50;;;4.20;99.90;;;;;;5266156;28;20555;-48
2024/01/22 04:07:09;;;;;;;4.43;3.53;;;4.30;99.90;;;;;;5263173;28;20236;-48
2024/01/22 04:09:40;;;;;;;5.30;3.87;;;4.30;99.90;;;;;;5261698;28;20208;-48
2024/01/22 04:12:11;;;;;;;3.83;3.13;;;4.30;99.90;;;;;;5266757;28;20251;-48
2024/01/22 04:14:41;;;;;;;4.33;3.60;;;4.20;99.90;;;;;;5262024;28;20689;-49
2024/01/22 04:17:12;;;;;;;5.00;3.60;;;4.20;99.90;;;;;;5262504;28;20260;-47
2024/01/22 04:19:43;;;;;;;7.07;4.67;;;4.20;99.90;;;;;;5265277;28;20194;-49
2024/01/22 04:22:14;;;;;;;4.27;3.87;;;4.20;99.90;;;;;;5260231;28;20438;-48
2024/01/22 04:24:44;;;;;;;3.67;3.47;;;4.20;99.90;;;;;;5266068;28;20206;-49
2024/01/22 04:27:15;;;;;;;3.47;2.57;;;4.30;99.90;;;;;;5264410;28;20965;-49
2024/01/22 04:29:46;;;;;;;4.47;3.60;;;4.30;99.90;;;;;;5262841;28;20191;-47
2024/01/22 04:32:16;;;;;;;6.10;3.03;;;4.20;99.90;;;;;;5268186;28;20537;-47
2024/01/22 04:34:47;;;;;;;4.33;3.77;;;4.20;99.90;;;;;;5273064;28;20687;-48
2024/01/22 04:37:18;;;;;;;5.50;3.40;;;4.30;99.90;;;;;;5267029;28;20239;-49
2024/01/22 04:39:49;;;;;;;6.07;3.13;;;4.50;99.90;;;;;;5267385;28;20534;-51
2024/01/22 04:42:20;;;;;;;5.33;3.57;;;4.30;99.90;;;;;;5269038;28;20962;-48
2024/01/22 04:44:51;;;;;;;6.87;3.67;;;4.20;99.90;;;;;;5270020;28;20200;-50
2024/01/22 04:47:21;;;;;;;14.30;5.13;;;4.20;99.90;;;;;;5268371;28;20441;-49
2024/01/22 04:49:52;;;;;;;14.83;5.10;;;4.30;99.90;;;;;;5262744;28;20238;-49
2024/01/22 04:52:22;;;;;;;8.50;5.10;;;4.30;99.90;;;;;;5266342;28;20433;-49
2024/01/22 04:54:53;;;;;;;12.93;8.33;;;4.30;99.90;;;;;;5269398;28;20249;-50
2024/01/22 04:57:24;;;;;;;6.20;4.80;;;4.40;99.90;;;;;;5268273;28;20191;-49
2024/01/22 04:59:55;;;;;;;7.90;5.33;;;4.50;99.90;;;;;;5265050;28;20290;-49
2024/01/22 05:02:27;;;;;;;5.10;3.80;;;4.60;99.90;;;;;;5263760;28;20434;-49
2024/01/22 05:04:58;;;;;;;2.20;2.10;;;4.40;99.90;;;;;;5265096;28;20565;-49
2024/01/22 05:07:28;;;;;;;6.57;2.93;;;4.40;99.90;;;;;;5265871;28;20433;-51
2024/01/22 05:10:04;;;;;;;3.23;3.10;;;4.40;99.90;;;;;;5267087;28;20672;-50
2024/01/22 05:12:36;;;;;;;4.47;3.17;;;4.50;99.90;;;;;;5265978;28;20228;-48
2024/01/22 05:15:07;;;;;;;6.60;3.73;;;4.40;99.90;;;;;;5264242;28;20447;-51
2024/01/22 05:17:37;;;;;;;5.87;3.90;;;4.60;99.90;;;;;;5263557;28;20435;-48
2024/01/22 05:20:09;;;;;;;8.70;4.40;;;4.70;99.90;;;;;;5261957;28;20459;-50
2024/01/22 05:22:39;;;;;;;6.57;3.73;;;4.80;99.90;;;;;;5253267;28;20665;-50
2024/01/22 05:25:10;;;;;;;2.33;2.23;;;4.80;99.90;;;;;;5266252;28;20556;-51
2024/01/22 05:27:44;;;;;;;7.07;3.67;;;4.80;99.90;;;;;;5262185;28;20184;-50
2024/01/22 05:30:15;;;;;;;3.97;3.60;;;4.80;99.90;;;;;;5264577;28;20209;-50
2024/01/22 05:32:45;;;;;;;3.57;2.80;;;4.70;99.90;;;;;;5264241;28;20897;-50
2024/01/22 05:35:16;;;;;;;2.83;2.63;;;4.60;99.90;;;;;;5265956;28;20263;-49
2024/01/22 05:37:48;;;;;;;4.20;3.07;;;4.80;99.90;;;;;;5266948;28;20181;-50
2024/01/22 05:40:19;;;;;;;2.73;2.43;;;4.90;99.90;;;;;;5261597;28;20216;-50
2024/01/22 05:42:50;;;;;;;7.37;4.03;;;4.90;99.90;;;;;;5266075;28;20451;-49
2024/01/22 05:45:21;;;;;;;4.03;3.60;;;4.90;99.90;;;;;;5266786;28;20904;-50
2024/01/22 05:47:52;;;;;;;9.00;3.97;;;5.00;99.90;;;;;;5269683;28;20184;-51
2024/01/22 05:50:22;;;;;;;4.87;3.07;;;5.00;99.90;;;;;;5264663;28;20574;-49
2024/01/22 05:52:53;;;;;;;6.43;3.70;;;5.00;99.90;;;;;;5263541;28;20242;-50
2024/01/22 05:55:23;;;;;;;6.53;3.30;;;5.10;99.90;;;;;;5262336;28;20192;-51
2024/01/22 05:57:55;;;;;;;3.53;2.73;;;5.10;99.90;;;;;;5266682;28;20181;-49
2024/01/22 06:00:25;;;;;;;2.40;2.30;;;5.10;99.90;;;;;;5262072;28;20602;-51
2024/01/22 06:02:59;;;;;;;7.10;3.20;;;5.20;99.90;;;;;;5263041;28;20487;-50
2024/01/22 06:05:30;;;;;;;4.13;3.20;;;5.20;99.90;;;;;;5264494;28;20759;-49
2024/01/22 06:08:00;;;;;;;4.80;4.20;;;5.30;99.90;;;;;;5260158;28;20525;-51
2024/01/22 06:10:31;;;;;;;5.30;3.83;;;5.50;99.90;;;;;;5268044;28;20189;-48
2024/01/22 06:13:01;;;;;;;3.27;3.00;;;5.40;99.90;;;;;;5268564;28;20199;-51
2024/01/22 06:15:32;;;;;;;3.50;3.20;;;5.50;99.90;;;;;;5267325;28;20181;-49
2024/01/22 06:18:03;;;;;;;3.50;3.20;;;5.60;99.90;;;;;;5274426;28;20188;-50
2024/01/22 06:20:33;;;;;;;2.80;2.60;;;5.60;99.90;;;;;;5264340;28;20201;-50
2024/01/22 06:23:04;;;;;;;3.00;2.50;;;5.60;99.90;;;;;;5263680;28;20272;-49
2024/01/22 06:25:35;;;;;;;2.93;2.83;;;5.70;99.90;;;;;;5263869;28;20568;-49
2024/01/22 06:28:05;;;;;;;4.57;1.77;;;5.80;99.90;;;;;;5264701;28;20173;-49
2024/01/22 06:30:36;;;;;;;3.73;3.43;;;5.80;99.90;;;;;;5262228;28;20614;-49
2024/01/22 06:33:08;;;;;;;1.30;1.20;;;5.90;99.90;;;;;;5264233;28;20536;-49
2024/01/22 06:35:38;;;;;;;3.57;1.63;;;5.90;99.90;;;;;;5260715;28;20190;-50
2024/01/22 06:38:09;;;;;;;2.60;1.63;;;6.00;99.90;;;;;;5257071;28;20489;-49
2024/01/22 06:40:40;;;;;;;1.93;1.83;;;6.10;99.90;;;;;;5263213;28;20771;-51
2024/01/22 06:43:12;;;;;;;2.27;2.07;;;6.10;99.90;;;;;;5262670;28;20170;-49
2024/01/22 06:45:43;;;;;;;3.87;1.60;;;6.10;99.90;;;;;;5263448;28;20473;-51
2024/01/22 06:48:13;;;;;;;1.67;1.40;;;6.10;99.90;;;;;;5261625;28;20838;-50
2024/01/22 06:50:44;;;;;;;1.47;1.30;;;6.20;99.90;;;;;;5260127;28;20197;-49
2024/01/22 06:53:14;;;;;;;1.53;1.43;;;6.30;99.90;;;;;;5260239;28;20250;-50
2024/01/22 06:55:45;;;;;;;1.50;1.40;;;6.30;99.90;;;;;;5259293;28;20213;-51
2024/01/22 06:58:16;;;;;;;2.00;1.90;;;6.40;99.90;;;;;;5260148;28;20177;-49
2024/01/22 07:00:47;;;;;;;3.60;2.00;;;6.40;99.90;;;;;;5253811;28;20263;-50
2024/01/22 07:03:20;;;;;;;2.50;2.27;;;6.40;99.90;;;;;;5255458;28;20448;-49
2024/01/22 07:05:52;;;;;;;2.50;2.30;;;6.40;99.90;;;;;;5263637;28;20455;-49
2024/01/22 07:08:23;;;;;;;1.70;1.60;;;6.60;99.90;;;;;;5263054;28;20447;-50
2024/01/22 07:10:53;;;;;;;4.97;2.43;;;6.60;99.90;;;;;;5261602;28;20491;-49
2024/01/22 07:13:24;;;;;;;4.60;2.13;;;6.70;99.90;;;;;;5261887;28;20186;-49
2024/01/22 07:15:54;;;;;;;3.97;2.03;;;6.70;99.90;;;;;;5269012;28;20189;-50
2024/01/22 07:18:25;;;;;;;1.40;1.37;;;6.90;99.90;;;;;;5260658;28;20243;-50
2024/01/22 07:20:56;;;;;;;3.30;2.60;;;6.90;99.90;;;;;;5262624;28;20205;-50
2024/01/22 07:23:26;;;;;;;2.83;1.93;;;7.00;99.90;;;;;;5261664;28;20961;-50
2024/01/22 07:25:57;;;;;;;2.33;1.33;;;7.00;99.90;;;;;;5260335;28;20753;-51
2024/01/22 07:28:28;;;;;;;6.93;1.80;;;7.00;99.90;;;;;;5256569;28;20178;-49
2024/01/22 07:30:58;;;;;;;1.67;1.57;;;7.00;99.90;;;;;;5263089;28;20252;-52
2024/01/22 07:33:30;;;;;;;1.80;1.50;;;7.00;99.90;;;;;;5258895;28;20677;-49
2024/01/22 07:36:00;;;;;;;3.97;2.20;;;7.10;99.90;;;;;;5260522;28;20223;-48
2024/01/22 07:38:31;;;;;;;6.13;2.23;;;7.10;99.90;;;;;;5261343;28;20439;-51
2024/01/22 07:41:01;;;;;;;2.53;2.33;;;7.00;99.90;;;;;;5264227;28;20221;-50
2024/01/22 07:43:32;;;;;;;4.43;2.13;;;7.00;99.90;;;;;;5252873;28;20205;-49
2024/01/22 07:46:03;;;;;;;7.07;4.30;;;6.90;99.90;;;;;;5258189;28;20209;-49
2024/01/22 07:48:33;;;;;;;8.30;3.10;;;7.00;99.90;;;;;;5265785;28;20246;-51
2024/01/22 07:51:04;;;;;;;2.00;1.90;;;7.00;99.90;;;;;;5259565;28;20255;-51
2024/01/22 07:53:35;;;;;;;9.37;1.80;;;6.90;99.90;;;;;;5262032;28;20182;-49
2024/01/22 07:56:06;;;;;;;4.43;2.50;;;6.90;99.90;;;;;;5257829;28;20453;-49
2024/01/22 07:58:39;;;;;;;4.77;3.27;;;6.90;99.90;;;;;;5260372;28;20216;-51
2024/01/22 08:01:10;;;;;;;3.80;3.50;;;6.90;99.90;;;;;;5247542;28;20202;-51
2024/01/22 08:03:41;;;;;;;8.83;5.37;;;7.00;99.90;;;;;;5268443;28;20828;-50
2024/01/22 08:06:11;;;;;;;8.13;4.40;;;7.00;99.90;;;;;;5245515;28;20578;-50
2024/01/22 08:08:42;;;;;;;4.20;3.73;;;6.90;99.90;;;;;;5260765;28;20177;-50
2024/01/22 08:11:13;;;;;;;6.63;4.73;;;6.90;99.90;;;;;;5261412;28;20616;-51
2024/01/22 08:13:43;;;;;;;5.00;3.67;;;6.90;99.90;;;;;;5253677;28;20185;-49
2024/01/22 08:16:14;;;;;;;2.63;2.43;;;6.90;99.90;;;;;;5257934;28;20257;-51
2024/01/22 08:18:45;;;;;;;3.03;2.83;;;6.70;99.90;;;;;;5263110;28;20178;-50
2024/01/22 08:21:15;;;;;;;1.53;1.43;;;6.60;99.90;;;;;;5255232;28;20216;-51
2024/01/22 08:23:46;;;;;;;4.27;1.30;;;6.60;99.90;;;;;;5257616;28;20182;-52
2024/01/22 08:26:17;;;;;;;2.63;1.77;;;6.50;99.90;;;;;;5265680;28;20209;-50
2024/01/22 08:28:47;;;;;;;4.40;1.73;;;6.30;99.90;;;;;;5258221;28;20193;-50
2024/01/22 08:31:18;;;;;;;1.70;1.60;;;6.30;99.90;;;;;;5266981;28;20912;-50
2024/01/22 08:33:49;;;;;;;1.60;1.50;;;6.20;99.90;;;;;;5263491;28;20181;-51
2024/01/22 08:36:20;;;;;;;1.90;1.53;;;6.20;99.90;;;;;;5258798;28;20213;-50
2024/01/22 08:38:51;;;;;;;1.70;1.60;;;6.20;99.90;;;;;;5256747;28;20526;-50
2024/01/22 08:41:26;;;;;;;1.93;1.70;;;6.00;99.90;;;;;;5260503;28;20580;-51
2024/01/22 08:44:02;;;;;;;2.27;1.90;;;5.90;99.90;;;;;;5261762;28;20177;-49
2024/01/22 08:46:33;;;;;;;1.80;1.70;;;5.90;99.90;;;;;;5263658;28;20550;-49
2024/01/22 08:49:04;;;;;;;3.90;2.93;;;5.80;99.90;;;;;;5270972;28;20446;-49
2024/01/22 08:51:34;;;;;;;2.20;1.80;;;5.80;99.90;;;;;;5268751;28;20792;-51
2024/01/22 08:54:05;;;;;;;2.10;2.00;;;5.80;99.90;;;;;;5255720;28;20544;-50
2024/01/22 08:56:37;;;;;;;2.80;2.57;;;5.70;99.90;;;;;;5261135;28;20204;-49
2024/01/22 08:59:08;;;;;;;6.17;3.10;;;5.70;99.90;;;;;;5262429;28;20185;-51
2024/01/22 09:01:39;;;;;;;4.40;2.33;;;5.70;99.90;;;;;;5264627;28;20466;-49
2024/01/22 09:04:09;;;;;;;3.83;2.53;;;5.60;99.90;;;;;;5267886;28;20431;-49
2024/01/22 09:06:40;;;;;;;4.93;2.80;;;5.70;99.90;;;;;;5264062;28;20198;-53
2024/01/22 09:09:11;;;;;;;2.57;2.37;;;5.60;99.90;;;;;;5260694;28;20177;-49
2024/01/22 09:11:41;;;;;;;12.83;1.87;;;5.60;99.90;;;;;;5246635;28;20795;-51
2024/01/22 09:14:12;;;;;;;1.70;1.60;;;5.70;99.90;;;;;;5261792;28;20186;-51
2024/01/22 09:16:42;;;;;;;2.90;1.50;;;5.70;99.90;;;;;;5262859;28;20560;-50
2024/01/22 09:19:13;;;;;;;5.50;1.40;;;5.80;99.90;;;;;;5264916;28;20581;-48
2024/01/22 09:21:44;;;;;;;4.90;2.20;;;5.70;99.90;;;;;;5265589;28;20284;-50
2024/01/22 09:24:14;;;;;;;1.73;1.63;;;5.70;99.90;;;;;;5266073;28;20230;-48
2024/01/22 09:26:45;;;;;;;1.83;1.73;;;5.80;99.90;;;;;;5264657;28;20202;-52
2024/01/22 09:29:16;;;;;;;1.63;1.63;;;5.80;99.90;;;;;;5267159;28;20608;-50
2024/01/22 09:31:47;;;;;;;2.57;1.90;;;5.80;99.90;;;;;;5260765;28;20234;-50
2024/01/22 09:34:17;;;;;;;2.00;1.80;;;5.90;99.90;;;;;;5265611;28;20484;-51
2024/01/22 09:36:48;;;;;;;7.50;1.83;;;5.90;99.90;;;;;;5262127;28;20705;-50
2024/01/22 09:39:19;;;;;;;4.23;2.60;;;5.90;99.90;;;;;;5264641;28;20196;-50
2024/01/22 09:41:51;;;;;;;1.73;1.60;;;6.00;99.90;;;;;;5266047;28;20214;-50
2024/01/22 09:44:22;;;;;;;5.70;2.27;;;6.00;99.90;;;;;;5262025;28;21073;-50
2024/01/22 09:46:53;;;;;;;2.23;1.50;;;6.00;99.90;;;;;;5258270;28;20573;-50
2024/01/22 09:49:24;;;;;;;5.60;2.00;;;6.10;99.90;;;;;;5261172;28;20463;-51
2024/01/22 09:51:54;;;;;;;2.03;1.90;;;6.10;99.90;;;;;;5263045;28;20486;-48
2024/01/22 09:54:28;;;;;;;2.67;1.70;;;6.00;99.90;;;;;;5262706;28;20189;-50
2024/01/22 09:57:02;;;;;;;3.07;1.90;;;6.10;99.90;;;;;;5265740;28;20234;-53
2024/01/22 09:59:34;;;;;;;2.77;2.30;;;6.10;99.90;;;;;;5264692;28;20508;-50
2024/01/22 10:02:05;;;;;;;3.33;2.00;;;6.20;99.90;;;;;;5265136;28;20946;-49
2024/01/22 10:04:36;;;;;;;2.00;1.60;;;6.30;99.90;;;;;;5263289;28;20441;-50
2024/01/22 10:07:13;;;;;;;9.77;1.73;;;6.30;99.90;;;;;;5266006;28;20415;-50
2024/01/22 10:09:46;;;;;;;5.03;2.70;;;6.40;99.90;;;;;;5249195;28;20655;-52
2024/01/22 10:12:17;;;;;;;7.40;2.00;;;6.50;99.90;;;;;;5261302;28;20511;-48
2024/01/22 10:14:47;;;;;;;2.67;1.60;;;6.50;99.90;;;;;;5261290;28;20432;-50
2024/01/22 10:17:20;;;;;;;1.80;1.70;;;6.60;99.90;;;;;;5263910;28;20181;-50
2024/01/22 10:19:54;;;;;;;2.07;1.90;;;6.70;99.90;;;;;;5266507;28;20173;-48
2024/01/22 10:22:26;;;;;;;3.40;2.10;;;6.80;99.90;;;;;;5260905;28;20416;-50
2024/01/22 10:24:59;;;;;;;2.70;2.50;;;6.90;99.90;;;;;;5259557;28;20472;-50
2024/01/22 10:27:29;;;;;;;2.20;2.00;;;6.90;99.90;;;;;;5257542;28;20431;-50
2024/01/22 10:30:11;;;;;;;1.67;1.57;;;6.90;99.90;;;;;;5263893;28;20444;-52
2024/01/22 10:32:41;;;;;;;2.17;2.07;;;7.00;99.90;;;;;;5260690;28;20261;-48
2024/01/22 10:35:22;;;;;;;3.13;2.07;;;7.20;99.90;;;;;;5257474;28;21566;-50
2024/01/22 10:38:12;;;;;;;4.90;2.30;;;7.20;99.90;;;;;;5259094;28;20174;-49
2024/01/22 10:40:45;;;;;;;2.30;1.60;;;7.30;99.90;;;;;;5262951;28;20467;-50
2024/01/22 10:43:26;;;;;;;1.60;1.37;;;7.30;99.90;;;;;;5263756;28;21022;-50
2024/01/22 10:45:58;;;;;;;1.73;1.63;;;7.40;99.90;;;;;;5263123;28;20456;-49
2024/01/22 10:48:28;;;;;;;3.33;1.70;;;7.40;99.90;;;;;;5258498;28;20536;-50
2024/01/22 10:51:01;;;;;;;2.80;1.63;;;7.40;99.90;;;;;;5264363;28;20475;-50
2024/01/22 10:53:32;;;;;;;1.93;1.40;;;7.50;99.90;;;;;;5263175;28;20182;-51
2024/01/22 10:56:24;;;;;;;4.30;2.53;;;7.60;99.90;;;;;;5267210;28;20430;-50
2024/01/22 10:58:58;;;;;;;1.70;1.60;;;7.70;99.90;;;;;;5261490;28;20804;-49
2024/01/22 11:01:31;;;;;;;1.33;1.20;;;7.70;99.90;;;;;;5261926;28;20454;-51
2024/01/22 11:04:02;;;;;;;1.23;1.10;;;7.80;99.90;;;;;;5239841;28;20511;-49
2024/01/22 11:06:36;;;;;;;1.80;1.23;;;7.90;99.90;;;;;;5261384;28;20479;-50
2024/01/22 11:09:09;;;;;;;1.63;1.53;;;7.90;99.90;;;;;;5257752;28;20432;-52
2024/01/22 11:11:42;;;;;;;12.57;1.70;;;7.90;99.90;;;;;;5252707;28;20448;-49
2024/01/22 11:14:13;;;;;;;1.50;1.40;;;7.90;99.90;;;;;;5242255;28;20493;-52
2024/01/22 11:16:44;;;;;;;3.57;1.87;;;7.90;99.90;;;;;;5255785;28;20451;-51
2024/01/22 11:19:22;;;;;;;2.60;2.40;;;7.90;99.90;;;;;;5262401;28;20178;-51
2024/01/22 11:21:53;;;;;;;2.40;1.20;;;8.00;99.90;;;;;;5255426;28;20254;-50
2024/01/22 11:24:24;;;;;;;2.00;1.17;;;8.10;99.90;;;;;;5271096;22;20492;-50
2024/01/22 11:26:54;;;;;;;3.33;1.90;;;8.10;99.90;;;;;;5225443;28;20210;-50
2024/01/22 11:29:27;;;;;;;2.77;1.67;;;8.10;99.90;;;;;;5226672;28;20437;-52
2024/01/22 11:32:23;;;;;;;2.20;2.10;;;8.20;99.90;;;;;;5225718;28;20193;-51
2024/01/22 11:34:57;;;;;;;2.60;1.77;;;8.30;99.90;;;;;;5213847;28;20460;-52
2024/01/22 11:37:36;;;;;;;1.80;1.70;;;8.30;99.90;;;;;;5222900;28;20434;-51
2024/01/22 11:40:07;;;;;;;1.53;1.20;;;8.40;99.90;;;;;;5205222;28;20507;-52
2024/01/22 11:42:39;;;;;;;3.03;1.67;;;8.50;99.90;;;;;;5222425;28;20437;-52
2024/01/22 11:45:12;;;;;;;5.37;1.93;;;8.50;99.90;;;;;;5221130;28;20972;-51
2024/01/22 11:47:43;;;;;;;2.80;1.70;;;8.50;99.90;;;;;;5207985;28;20762;-51
2024/01/22 11:50:16;;;;;;;3.60;1.40;;;8.60;99.90;;;;;;5226682;28;20452;-51
2024/01/22 11:52:47;;;;;;;2.03;1.10;;;8.60;99.90;;;;;;5223912;28;20183;-51
2024/01/22 11:55:18;;;;;;;0.80;0.80;;;8.60;99.90;;;;;;5225357;28;20494;-52
2024/01/22 11:57:49;;;;;;;4.10;1.90;;;8.60;99.90;;;;;;5226072;28;20206;-53
2024/01/22 12:00:20;;;;;;;2.90;1.60;;;8.50;99.90;;;;;;5225955;28;20175;-53
2024/01/22 12:02:55;;;;;;;1.00;1.00;;;8.60;99.90;;;;;;5228577;28;20440;-52
2024/01/22 12:05:25;;;;;;;1.33;1.30;;;8.60;99.90;;;;;;5202109;28;20477;-53
2024/01/22 12:07:56;;;;;;;0.80;0.80;;;8.60;99.90;;;;;;5222340;28;20438;-52
2024/01/22 12:10:28;;;;;;;1.03;1.03;;;8.70;99.90;;;;;;5225353;28;20171;-52
2024/01/22 12:13:08;;;;;;;1.03;1.03;;;8.70;99.90;;;;;;5208831;28;20541;-53
2024/01/22 12:15:38;;;;;;;4.30;1.67;;;8.80;99.90;;;;;;5203856;28;20444;-52
2024/01/22 12:18:09;;;;;;;2.47;1.33;;;8.90;99.90;;;;;;5220530;28;20531;-53
2024/01/22 12:20:40;;;;;;;1.30;1.30;;;9.00;99.90;;;;;;5203571;28;20186;-52
2024/01/22 12:23:11;;;;;;;1.47;1.40;;;9.10;99.90;;;;;;5217385;28;20183;-52
2024/01/22 12:25:41;;;;;;;1.10;1.00;;;9.10;99.90;;;;;;5218361;28;20215;-51
2024/01/22 12:28:13;;;;;;;1.00;1.00;;;9.30;99.90;;;;;;5219214;28;20479;-53
2024/01/22 12:30:44;;;;;;;1.20;1.10;;;9.40;99.90;;;;;;5222623;28;20179;-50
2024/01/22 12:33:24;;;;;;;0.90;0.90;;;9.30;99.90;;;;;;5222715;28;20967;-53
2024/01/22 12:36:08;;;;;;;1.27;1.17;;;9.40;99.90;;;;;;5209632;28;20205;-51
2024/01/22 12:38:50;;;;;;;1.00;1.00;;;9.40;99.90;;;;;;5219414;28;20433;-53
2024/01/22 12:41:22;;;;;;;1.27;1.17;;;9.40;99.90;;;;;;5219923;28;20445;-51
2024/01/22 12:43:58;;;;;;;0.70;0.70;;;9.40;99.90;;;;;;5209430;28;20449;-51
2024/01/22 12:46:31;;;;;;;1.67;1.20;;;9.30;99.90;;;;;;5221895;28;20457;-51
2024/01/22 12:49:01;;;;;;;0.97;0.97;;;9.30;99.90;;;;;;5224931;28;20740;-51
2024/01/22 12:51:33;;;;;;;2.10;1.10;;;9.30;99.90;;;;;;5238772;28;20444;-52
2024/01/22 12:54:04;;;;;;;0.67;0.67;;;9.40;99.90;;;;;;5221779;28;20210;-51
2024/01/22 12:56:34;;;;;;;4.10;1.20;;;9.30;99.90;;;;;;5208699;28;20433;-51
2024/01/22 12:59:06;;;;;;;0.93;0.93;;;9.30;99.90;;;;;;5203959;28;20203;-53
2024/01/22 13:01:36;;;;;;;0.97;0.97;;;9.30;99.90;;;;;;5231187;28;20190;-50
2024/01/22 13:04:07;;;;;;;0.90;0.90;;;9.40;99.90;;;;;;5224209;28;20454;-52
2024/01/22 13:06:37;;;;;;;1.60;0.93;;;9.40;99.90;;;;;;5212868;28;20663;-52
2024/01/22 13:09:08;;;;;;;1.40;1.30;;;9.40;99.90;;;;;;5219778;28;20201;-52
2024/01/22 13:11:38;;;;;;;1.10;1.10;;;9.40;99.90;;;;;;5225030;28;20237;-52
2024/01/22 13:14:09;;;;;;;1.30;1.20;;;9.40;99.90;;;;;;5222467;28;20245;-51
2024/01/22 13:16:40;;;;;;;1.63;1.43;;;9.30;99.90;;;;;;5226585;28;20187;-52
2024/01/22 13:19:10;;;;;;;1.90;0.90;;;9.40;99.90;;;;;;5219939;28;20210;-51